Time;durP1;ratioP1;P1;durP2;ratioP2;P2;SDS_P1;SDS_P2;PMS_P1;PMS_P2;Temp;Humidity;BMP_temperature;BMP_pressure;BME280_temperature;BME280_humidity;BME280_pressure;Samples;Min_cycle;Max_cycle;Signal;HPM_P1;HPM_P2
2023/12/25 00:00:07;;;;;;;;;3.75;1.00;;;;;-146.67;53.92;75196.72;5083904;28;61933;-82
2023/12/25 00:02:32;;;;;;;;;3.00;3.00;;;;;-146.67;53.83;75208.72;5084349;27;61798;-82
2023/12/25 00:04:58;;;;;;;;;5.75;3.75;;;;;-146.67;53.81;75208.72;5083615;28;62075;-82
2023/12/25 00:07:23;;;;;;;;;4.00;3.00;;;;;-146.67;53.97;75226.69;5083122;28;61804;-81
2023/12/25 00:09:49;;;;;;;;;1.75;1.75;;;;;-146.67;54.15;75222.69;5099543;27;61788;-82
2023/12/25 00:12:14;;;;;;;;;6.50;2.75;;;;;-146.67;54.00;75218.69;5083822;28;61873;-82
2023/12/25 00:14:40;;;;;;;;;6.75;4.75;;;;;-146.67;54.20;75204.72;5083386;28;61864;-82
2023/12/25 00:17:05;;;;;;;;;4.50;3.00;;;;;-146.67;54.43;75228.69;5083345;28;62663;-82
2023/12/25 00:19:30;;;;;;;;;4.75;3.50;;;;;-146.67;54.35;75222.69;5095119;27;61928;-82
2023/12/25 00:21:58;;;;;;;;;3.00;2.00;;;;;-146.67;54.39;75202.72;5083053;27;61904;-82
2023/12/25 00:24:23;;;;;;;;;2.50;2.00;;;;;-146.67;54.28;75218.69;5083865;27;62003;-82
2023/12/25 00:26:49;;;;;;;;;3.50;2.00;;;;;-146.67;54.54;75226.69;5082864;28;62675;-82
2023/12/25 00:29:14;;;;;;;;;5.25;1.25;;;;;-146.67;54.54;75220.69;5083750;27;61904;-82
2023/12/25 00:31:39;;;;;;;;;2.50;2.25;;;;;-146.67;54.56;75208.72;5083873;27;62079;-82
2023/12/25 00:34:05;;;;;;;;;6.00;2.00;;;;;-146.67;54.37;75212.72;5083623;27;62060;-82
2023/12/25 00:36:30;;;;;;;;;2.75;1.50;;;;;-146.67;54.28;75198.72;5082353;27;61732;-82
2023/12/25 00:38:55;;;;;;;;;9.00;3.75;;;;;-146.67;54.44;75206.72;5083384;27;61787;-82
2023/12/25 00:41:22;;;;;;;;;3.75;2.00;;;;;-146.67;54.50;75210.72;5083704;27;61772;-82
2023/12/25 00:43:48;;;;;;;;;2.00;2.00;;;;;-146.67;54.44;75204.72;5083882;27;61907;-82
2023/12/25 00:46:13;;;;;;;;;1.50;1.00;;;;;-146.67;54.67;75204.72;5082515;27;61723;-82
2023/12/25 00:48:39;;;;;;;;;2.25;2.25;;;;;-146.67;54.48;75210.72;5083588;27;61713;-82
2023/12/25 00:51:04;;;;;;;;;6.25;3.00;;;;;-146.67;54.53;75208.72;5082230;27;61698;-82
2023/12/25 00:53:29;;;;;;;;;3.75;3.00;;;;;-146.67;54.81;75218.69;5083528;27;61871;-82
2023/12/25 00:55:55;;;;;;;;;9.25;3.75;;;;;-146.67;54.68;75214.69;5082757;27;62148;-82
2023/12/25 00:58:20;;;;;;;;;3.00;2.00;;;;;-146.67;54.61;75198.72;5083197;27;61831;-82
2023/12/25 01:00:46;;;;;;;;;2.75;1.00;;;;;-146.67;54.57;75208.72;5081859;28;61730;-82
2023/12/25 01:03:11;;;;;;;;;2.25;2.00;;;;;-146.67;54.64;75208.72;5081824;28;61812;-82
2023/12/25 01:05:37;;;;;;;;;4.00;2.75;;;;;-146.67;54.60;75214.69;5081611;28;61830;-82
2023/12/25 01:08:02;;;;;;;;;4.75;2.25;;;;;-146.67;54.50;75206.72;5082831;28;61794;-82
2023/12/25 01:10:28;;;;;;;;;2.25;1.00;;;;;-146.67;54.63;75210.72;5083328;27;61888;-82
2023/12/25 01:12:53;;;;;;;;;3.00;2.00;;;;;-146.67;54.64;75208.72;5083103;27;61862;-82
2023/12/25 01:15:18;;;;;;;;;2.50;2.25;;;;;-146.67;54.70;75208.72;5082155;27;62820;-82
2023/12/25 01:17:44;;;;;;;;;8.00;3.25;;;;;-146.67;54.64;75208.72;5083134;27;61814;-82
2023/12/25 01:20:10;;;;;;;;;6.50;3.00;;;;;-146.67;54.70;75212.72;5080690;27;62028;-81
2023/12/25 01:22:35;;;;;;;;;2.75;1.00;;;;;-146.67;54.63;75202.72;5083226;28;61763;-82
2023/12/25 01:25:01;;;;;;;;;1.75;1.25;;;;;-146.67;54.61;75202.72;5081288;27;61771;-82
2023/12/25 01:27:26;;;;;;;;;2.00;2.00;;;;;-146.67;54.67;75202.72;5082749;27;61717;-82
2023/12/25 01:29:51;;;;;;;;;9.00;4.00;;;;;-146.67;54.58;75198.72;5083134;28;61706;-82
2023/12/25 01:32:17;;;;;;;;;2.75;2.75;;;;;-146.67;54.50;75190.75;5082947;27;61758;-82
2023/12/25 01:34:42;;;;;;;;;3.50;2.75;;;;;-146.67;54.81;75208.72;5081702;27;61801;-82
2023/12/25 01:37:08;;;;;;;;;5.00;2.75;;;;;-146.67;54.72;75192.75;5082348;27;61802;-82
2023/12/25 01:39:33;;;;;;;;;4.00;2.00;;;;;-146.67;54.72;75190.75;5082656;27;61716;-82
2023/12/25 01:41:59;;;;;;;;;8.75;2.00;;;;;-146.67;54.79;75182.75;5082936;27;61789;-82
2023/12/25 01:44:24;;;;;;;;;2.00;2.00;;;;;-146.67;54.94;75190.75;5081776;27;61925;-82
2023/12/25 01:46:49;;;;;;;;;2.25;2.00;;;;;-146.67;55.03;75190.75;5082641;27;61796;-82
2023/12/25 01:49:15;;;;;;;;;4.00;3.00;;;;;-146.67;55.02;75196.72;5081828;27;61983;-82
2023/12/25 01:51:40;;;;;;;;;6.25;2.50;;;;;-146.67;55.30;75190.75;5082407;27;61886;-82
2023/12/25 01:54:07;;;;;;;;;2.50;2.00;;;;;-146.67;55.15;75196.72;5082099;27;61873;-82
2023/12/25 01:56:33;;;;;;;;;2.00;2.00;;;;;-146.67;55.33;75194.72;5082553;27;61962;-82
2023/12/25 01:58:58;;;;;;;;;4.75;3.00;;;;;-146.67;55.48;75190.75;5082593;27;61841;-82
2023/12/25 02:01:23;;;;;;;;;6.00;1.50;;;;;-146.67;55.45;75198.72;5081067;28;61831;-82
2023/12/25 02:03:49;;;;;;;;;3.00;3.00;;;;;-146.67;55.49;75204.72;5097176;27;63762;-82
2023/12/25 02:06:15;;;;;;;;;6.00;2.50;;;;;-146.67;55.98;75208.72;5081687;28;61968;-82
2023/12/25 02:08:40;;;;;;;;;3.25;0.00;;;;;-146.67;55.69;75204.72;5082611;28;61734;-82
2023/12/25 02:11:06;;;;;;;;;5.00;2.50;;;;;-146.67;55.63;75196.72;5082649;28;62035;-82
2023/12/25 02:13:31;;;;;;;;;3.25;2.75;;;;;-146.67;55.61;75202.72;5081256;27;62658;-82
2023/12/25 02:15:57;;;;;;;;;5.50;3.00;;;;;-146.67;55.45;75210.72;5082181;28;61721;-82
2023/12/25 02:18:23;;;;;;;;;2.00;2.00;;;;;-146.67;55.37;75198.72;5081953;27;61638;-82
2023/12/25 02:20:49;;;;;;;;;1.00;1.00;;;;;-146.67;55.20;75206.72;5096734;27;61952;-82
2023/12/25 02:23:16;;;;;;;;;2.00;1.00;;;;;-146.67;55.37;75196.72;5081628;27;61746;-82
2023/12/25 02:25:57;;;;;;;;;4.00;1.75;;;;;-146.67;55.33;75194.72;5081819;27;61794;-82
2023/12/25 02:28:23;;;;;;;;;5.25;2.75;;;;;-146.67;55.21;75204.72;5082249;28;62194;-82
2023/12/25 02:30:48;;;;;;;;;4.00;2.00;;;;;-146.67;55.16;75192.75;5082284;27;61929;-82
2023/12/25 02:33:14;;;;;;;;;4.50;1.50;;;;;-146.67;55.10;75194.72;5079819;28;63647;-82
2023/12/25 02:35:39;;;;;;;;;3.50;2.00;;;;;-146.67;55.38;75204.72;5081706;27;61795;-82
2023/12/25 02:38:05;;;;;;;;;3.50;1.00;;;;;-146.67;55.36;75202.72;5085545;28;61726;-82
2023/12/25 02:40:30;;;;;;;;;4.50;1.50;;;;;-146.67;55.27;75204.72;5085671;27;62068;-82
2023/12/25 02:42:56;;;;;;;;;2.00;1.00;;;;;-146.67;55.14;75208.72;5083529;28;63403;-82
2023/12/25 02:45:21;;;;;;;;;2.00;0.75;;;;;-146.67;55.33;75226.69;5085205;27;61812;-82
2023/12/25 02:47:46;;;;;;;;;3.25;1.50;;;;;-146.67;55.28;75222.69;5085164;27;61746;-82
2023/12/25 02:50:12;;;;;;;;;1.00;1.00;;;;;-146.67;55.14;75204.72;5083183;28;62403;-82
2023/12/25 02:52:37;;;;;;;;;1.25;1.00;;;;;-146.67;55.44;75204.72;5084487;27;61784;-82
2023/12/25 02:55:03;;;;;;;;;3.25;1.00;;;;;-146.67;55.30;75204.72;5085301;27;61749;-82
2023/12/25 02:57:28;;;;;;;;;4.00;1.50;;;;;-146.67;55.61;75214.69;5085165;27;61803;-82
2023/12/25 02:59:54;;;;;;;;;6.50;1.50;;;;;-146.67;55.53;75206.72;5085437;27;61973;-82
2023/12/25 03:02:19;;;;;;;;;1.00;1.00;;;;;-146.67;55.37;75204.72;5084248;27;61877;-82
2023/12/25 03:04:44;;;;;;;;;4.00;0.00;;;;;-146.67;55.50;75194.72;5100482;27;61719;-82
2023/12/25 03:07:10;;;;;;;;;1.00;1.00;;;;;-146.67;55.43;75200.72;5083683;28;61879;-82
2023/12/25 03:09:35;;;;;;;;;2.25;2.00;;;;;-146.67;55.72;75198.72;5083539;28;61948;-81
2023/12/25 03:12:00;;;;;;;;;4.25;1.00;;;;;-146.67;55.88;75206.72;5084531;27;61976;-82
2023/12/25 03:14:26;;;;;;;;;3.50;1.75;;;;;-146.67;56.13;75202.72;5084658;27;61802;-82
2023/12/25 03:16:51;;;;;;;;;1.25;1.25;;;;;-146.67;56.00;75204.72;5084519;27;61701;-82
2023/12/25 03:19:16;;;;;;;;;1.00;1.00;;;;;-146.67;56.13;75202.72;5084648;27;61818;-82
2023/12/25 03:21:42;;;;;;;;;1.75;1.00;;;;;-146.67;56.06;75202.72;5083750;27;62684;-82
2023/12/25 03:24:07;;;;;;;;;1.00;1.00;;;;;-146.67;56.15;75190.75;5084813;28;61827;-82
2023/12/25 03:26:33;;;;;;;;;4.00;1.00;;;;;-146.67;56.24;75202.72;5084793;28;62185;-82
2023/12/25 03:28:59;;;;;;;;;3.75;1.50;;;;;-146.67;56.46;75202.72;5083469;28;62089;-82
2023/12/25 03:31:24;;;;;;;;;1.00;1.00;;;;;-146.67;56.52;75206.72;5099408;27;63478;-82
2023/12/25 03:33:49;;;;;;;;;2.00;1.00;;;;;-146.67;56.74;75196.72;5083197;28;61960;-82
2023/12/25 03:36:15;;;;;;;;;1.00;1.00;;;;;-146.67;56.79;75198.72;5084227;28;61893;-82
2023/12/25 03:38:40;;;;;;;;;7.50;1.25;;;;;-146.67;56.78;75198.72;5083275;28;61694;-82
2023/12/25 03:41:08;;;;;;;;;5.25;2.00;;;;;-146.67;56.51;75196.72;5084163;28;61851;-82
2023/12/25 03:43:33;;;;;;;;;3.50;2.50;;;;;-146.67;56.82;75198.72;5084691;28;61728;-82
2023/12/25 03:45:59;;;;;;;;;0.00;0.00;;;;;-146.67;56.85;75198.72;5083713;28;62210;-82
2023/12/25 03:48:24;;;;;;;;;1.50;1.50;;;;;-146.67;56.99;75194.72;5084047;28;61858;-82
2023/12/25 03:50:49;;;;;;;;;1.00;1.00;;;;;-146.67;57.07;75196.72;5082920;28;61814;-82
2023/12/25 03:53:15;;;;;;;;;3.00;0.50;;;;;-146.67;56.91;75186.75;5084469;28;61831;-82
2023/12/25 03:55:40;;;;;;;;;3.50;1.00;;;;;-146.67;56.94;75186.75;5084345;28;61827;-82
2023/12/25 03:58:06;;;;;;;;;4.00;1.00;;;;;-146.67;57.00;75190.75;5084370;28;61736;-82
2023/12/25 04:00:31;;;;;;;;;1.00;1.00;;;;;-146.67;57.19;75200.72;5081882;28;64861;-82
2023/12/25 04:02:56;;;;;;;;;2.00;1.00;;;;;-146.67;57.60;75200.72;5084132;28;61983;-82
2023/12/25 04:05:23;;;;;;;;;1.00;1.00;;;;;-146.67;57.49;75198.72;5082350;28;61892;-82
2023/12/25 04:07:49;;;;;;;;;5.00;0.50;;;;;-146.67;57.52;75194.72;5084547;27;61866;-82
2023/12/25 04:10:15;;;;;;;;;4.25;2.00;;;;;-146.67;57.81;75190.75;5098934;27;63571;-82
2023/12/25 04:12:41;;;;;;;;;0.75;0.75;;;;;-146.67;57.83;75196.72;5084060;28;61727;-82
2023/12/25 04:15:07;;;;;;;;;0.50;0.00;;;;;-146.67;58.03;75198.72;5083518;28;61900;-82
2023/12/25 04:17:32;;;;;;;;;2.50;1.00;;;;;-146.67;57.74;75186.75;5099622;27;61946;-82
2023/12/25 04:19:57;;;;;;;;;3.50;1.00;;;;;-146.67;57.89;75192.75;5080478;27;62596;-82
2023/12/25 04:22:23;;;;;;;;;3.00;0.50;;;;;-146.67;57.91;75192.75;5082338;28;61888;-82
2023/12/25 04:24:48;;;;;;;;;2.00;0.00;;;;;-146.67;57.89;75186.75;5083837;27;61837;-82
2023/12/25 04:27:14;;;;;;;;;1.75;1.75;;;;;-146.67;57.79;75186.75;5084035;27;61738;-82
2023/12/25 04:29:39;;;;;;;;;0.00;0.00;;;;;-146.67;57.85;75192.75;5082869;28;61916;-82
2023/12/25 04:32:05;;;;;;;;;2.25;1.00;;;;;-146.67;57.98;75194.72;5083714;27;62487;-82
2023/12/25 04:34:30;;;;;;;;;3.50;2.00;;;;;-146.67;57.70;75194.72;5083595;28;61816;-82
2023/12/25 04:36:55;;;;;;;;;0.00;0.00;;;;;-146.67;57.87;75192.75;5083646;27;61805;-83
2023/12/25 04:39:21;;;;;;;;;2.00;1.00;;;;;-146.67;57.89;75188.75;5083160;27;62744;-82
2023/12/25 04:41:46;;;;;;;;;0.50;0.00;;;;;-146.67;57.95;75198.72;5083539;27;61925;-82
2023/12/25 04:44:12;;;;;;;;;1.00;0.50;;;;;-146.67;58.14;75198.72;5083111;27;61860;-82
2023/12/25 04:46:39;;;;;;;;;2.75;1.00;;;;;-146.67;58.01;75196.72;5082192;28;62118;-82
2023/12/25 04:49:05;;;;;;;;;2.50;0.00;;;;;-146.67;57.98;75198.72;5082402;27;61922;-82
2023/12/25 04:51:31;;;;;;;;;2.75;1.00;;;;;-146.67;57.99;75186.75;5082991;27;62735;-82
2023/12/25 04:53:56;;;;;;;;;0.50;0.50;;;;;-146.67;58.20;75192.75;5082108;28;62011;-82
2023/12/25 04:56:21;;;;;;;;;0.00;0.00;;;;;-146.67;57.99;75188.75;5083429;27;62136;-82
2023/12/25 04:58:47;;;;;;;;;0.25;0.00;;;;;-146.67;57.92;75190.75;5081064;28;63607;-82
2023/12/25 05:01:12;;;;;;;;;0.25;0.25;;;;;-146.67;58.04;75188.75;5083247;27;61782;-82
2023/12/25 05:03:37;;;;;;;;;2.00;1.00;;;;;-146.67;58.06;75184.75;5083342;27;62315;-81
2023/12/25 05:06:03;;;;;;;;;1.25;0.00;;;;;-146.67;58.10;75192.75;5082859;27;61947;-82
2023/12/25 05:08:28;;;;;;;;;0.25;0.25;;;;;-146.67;58.36;75200.72;5082785;27;61847;-82
2023/12/25 05:10:53;;;;;;;;;3.00;0.00;;;;;-146.67;58.45;75204.72;5083158;27;61799;-82
2023/12/25 05:13:19;;;;;;;;;0.50;0.50;;;;;-146.67;58.55;75194.72;5082728;27;61860;-82
2023/12/25 05:15:44;;;;;;;;;0.00;0.00;;;;;-146.67;58.45;75198.72;5083185;27;61819;-82
2023/12/25 05:18:10;;;;;;;;;0.00;0.00;;;;;-146.67;58.46;75188.75;5082420;27;61853;-82
2023/12/25 05:20:35;;;;;;;;;1.25;1.00;;;;;-146.67;58.75;75196.72;5081983;27;61917;-82
2023/12/25 05:23:01;;;;;;;;;0.50;0.00;;;;;-146.67;58.38;75192.75;5083124;27;61867;-82
2023/12/25 05:25:26;;;;;;;;;2.00;1.00;;;;;-146.67;58.84;75206.72;5082826;27;62136;-82
2023/12/25 05:27:52;;;;;;;;;1.75;0.00;;;;;-146.67;58.78;75198.72;5082083;28;61925;-82
2023/12/25 05:30:17;;;;;;;;;0.00;0.00;;;;;-146.67;58.97;75204.72;5082620;28;61804;-81
2023/12/25 05:32:42;;;;;;;;;0.00;0.00;;;;;-146.67;58.72;75194.72;5083084;27;62000;-82
2023/12/25 05:35:08;;;;;;;;;1.00;0.00;;;;;-146.67;58.91;75194.72;5082497;27;61981;-82
2023/12/25 05:37:34;;;;;;;;;1.25;0.00;;;;;-146.67;59.01;75194.72;5082096;27;61754;-82
2023/12/25 05:40:00;;;;;;;;;0.00;0.00;;;;;-146.67;58.88;75196.72;5082854;27;61672;-82
2023/12/25 05:42:25;;;;;;;;;1.00;0.00;;;;;-146.67;59.51;75202.72;5082633;27;61860;-82
2023/12/25 05:44:51;;;;;;;;;1.25;0.00;;;;;-146.67;59.41;75196.72;5081224;28;61830;-83
2023/12/25 05:47:16;;;;;;;;;0.00;0.00;;;;;-146.67;59.42;75194.72;5080516;28;64994;-82
2023/12/25 05:49:41;;;;;;;;;0.00;0.00;;;;;-146.67;59.31;75196.72;5082347;27;62100;-82
2023/12/25 05:52:07;;;;;;;;;0.25;0.00;;;;;-146.67;59.55;75198.72;5082178;27;61721;-82
2023/12/25 05:54:32;;;;;;;;;1.75;0.00;;;;;-146.67;59.57;75196.72;5082821;27;62027;-82
2023/12/25 05:56:58;;;;;;;;;0.00;0.00;;;;;-146.67;59.38;75202.72;5081464;27;61762;-82
2023/12/25 05:59:24;;;;;;;;;0.50;0.00;;;;;-146.67;59.50;75194.72;5082412;27;61744;-82
2023/12/25 06:01:49;;;;;;;;;0.00;0.00;;;;;-146.67;59.48;75202.72;5082708;27;62438;-82
2023/12/25 06:04:14;;;;;;;;;0.00;0.00;;;;;-146.67;59.57;75188.75;5082720;28;62103;-82
2023/12/25 06:06:40;;;;;;;;;0.00;0.00;;;;;-146.67;59.66;75202.72;5081089;27;61879;-82
2023/12/25 06:09:06;;;;;;;;;0.25;0.00;;;;;-146.67;59.52;75192.75;5081019;28;61940;-82
2023/12/25 06:11:32;;;;;;;;;0.00;0.00;;;;;-146.67;59.49;75190.75;5083837;28;62012;-81
2023/12/25 06:13:57;;;;;;;;;1.00;0.00;;;;;-146.67;59.30;75178.75;5085517;28;61810;-82
2023/12/25 06:16:22;;;;;;;;;0.75;0.75;;;;;-146.67;59.43;75188.75;5083641;28;62695;-82
2023/12/25 06:18:48;;;;;;;;;0.00;0.00;;;;;-146.67;59.39;75198.72;5085974;27;61783;-82
2023/12/25 06:21:14;;;;;;;;;0.00;0.00;;;;;-146.67;59.30;75184.75;5084746;27;61822;-82
2023/12/25 06:23:40;;;;;;;;;0.00;0.00;;;;;-146.67;59.10;75194.72;5086054;28;62022;-79
2023/12/25 06:26:05;;;;;;;;;0.00;0.00;;;;;-146.67;59.37;75206.72;5083589;28;63662;-82
2023/12/25 06:28:31;;;;;;;;;0.00;0.00;;;;;-146.67;59.33;75202.72;5085666;27;61715;-82
2023/12/25 06:30:57;;;;;;;;;0.00;0.00;;;;;-146.67;59.12;75204.72;5085721;28;61837;-82
2023/12/25 06:33:22;;;;;;;;;0.00;0.00;;;;;-146.67;59.14;75210.72;5085929;27;61885;-83
2023/12/25 06:35:48;;;;;;;;;0.00;0.00;;;;;-146.67;59.01;75200.72;5084492;27;61798;-82
2023/12/25 06:38:14;;;;;;;;;1.00;0.00;;;;;-146.67;59.15;75208.72;5085257;28;61841;-82
2023/12/25 06:40:39;;;;;;;;;0.00;0.00;;;;;-146.67;58.99;75204.72;5085482;27;61691;-82
2023/12/25 06:43:04;;;;;;;;;0.00;0.00;;;;;-146.67;58.91;75206.72;5085992;27;61858;-82
2023/12/25 06:45:30;;;;;;;;;0.75;0.75;;;;;-146.67;58.76;75198.72;5100140;27;63548;-82
2023/12/25 06:47:55;;;;;;;;;0.75;0.00;;;;;-146.67;58.86;75202.72;5085380;27;61810;-82
2023/12/25 06:50:21;;;;;;;;;0.50;0.00;;;;;-146.67;59.06;75212.72;5084680;27;62584;-82
2023/12/25 06:52:46;;;;;;;;;0.00;0.00;;;;;-146.67;59.07;75206.72;5084981;28;62008;-82
2023/12/25 06:55:12;;;;;;;;;0.25;0.00;;;;;-146.67;58.78;75208.72;5084699;27;61712;-82
2023/12/25 06:57:37;;;;;;;;;0.00;0.00;;;;;-146.67;58.97;75216.69;5085216;27;62393;-82
2023/12/25 07:00:04;;;;;;;;;1.25;0.00;;;;;-146.67;59.07;75208.72;5085197;27;61874;-82
2023/12/25 07:02:30;;;;;;;;;0.00;0.00;;;;;-146.67;59.01;75202.72;5084136;28;62191;-82
2023/12/25 07:04:55;;;;;;;;;1.00;0.00;;;;;-146.67;58.90;75208.72;5084292;27;61967;-82
2023/12/25 07:07:20;;;;;;;;;0.00;0.00;;;;;-146.67;59.18;75206.72;5084660;27;61667;-81
2023/12/25 07:09:46;;;;;;;;;0.00;0.00;;;;;-146.67;59.16;75210.72;5084968;27;61826;-82
2023/12/25 07:12:11;;;;;;;;;0.25;0.00;;;;;-146.67;59.38;75216.69;5085188;27;61740;-82
2023/12/25 07:14:38;;;;;;;;;0.25;0.25;;;;;-146.67;59.21;75212.72;5083051;28;63580;-82
2023/12/25 07:17:06;;;;;;;;;2.00;0.00;;;;;-146.67;59.22;75226.69;5084778;28;61883;-82
2023/12/25 07:19:31;;;;;;;;;0.25;0.00;;;;;-146.67;59.22;75222.69;5082806;28;62010;-82
2023/12/25 07:21:57;;;;;;;;;0.00;0.00;;;;;-146.67;59.04;75220.69;5082753;28;61919;-81
2023/12/25 07:24:22;;;;;;;;;0.25;0.00;;;;;-146.67;59.08;75222.69;5083552;27;62715;-82
2023/12/25 07:26:48;;;;;;;;;0.00;0.00;;;;;-146.67;59.17;75228.69;5084481;27;62031;-82
2023/12/25 07:29:13;;;;;;;;;0.00;0.00;;;;;-146.67;59.20;75226.69;5084865;27;61784;-82
2023/12/25 07:31:38;;;;;;;;;0.00;0.00;;;;;-146.67;58.93;75232.69;5085037;27;61910;-82
2023/12/25 07:34:04;;;;;;;;;0.00;0.00;;;;;-146.67;59.19;75238.66;5084203;27;62747;-82
2023/12/25 07:36:29;;;;;;;;;0.00;0.00;;;;;-146.67;59.22;75244.66;5099761;27;61916;-82
2023/12/25 07:38:54;;;;;;;;;1.25;0.00;;;;;-146.67;59.30;75238.66;5084625;27;62104;-82
2023/12/25 07:41:22;;;;;;;;;0.00;0.00;;;;;-146.67;59.08;75244.66;5084839;27;61847;-82
2023/12/25 07:43:47;;;;;;;;;3.00;0.00;;;;;-146.67;59.40;75242.66;5084031;28;62841;-82
2023/12/25 07:46:12;;;;;;;;;0.00;0.00;;;;;-146.67;59.38;75250.66;5099809;27;61884;-82
2023/12/25 07:48:37;;;;;;;;;0.00;0.00;;;;;-146.67;59.45;75252.66;5084698;27;61825;-82
2023/12/25 07:51:03;;;;;;;;;0.00;0.00;;;;;-146.67;59.33;75250.66;5083317;27;62140;-82
2023/12/25 07:53:29;;;;;;;;;0.00;0.00;;;;;-146.67;59.41;75260.63;5099532;27;63750;-82
2023/12/25 07:55:54;;;;;;;;;1.00;0.00;;;;;-146.67;59.39;75252.66;5084160;28;61861;-82
2023/12/25 07:58:20;;;;;;;;;0.00;0.00;;;;;-146.67;59.37;75252.66;5100305;27;61902;-82
2023/12/25 08:00:45;;;;;;;;;0.00;0.00;;;;;-146.67;59.45;75258.63;5099802;27;62313;-82
2023/12/25 08:03:12;;;;;;;;;0.00;0.00;;;;;-146.67;59.21;75256.63;5082425;28;63584;-82
2023/12/25 08:05:38;;;;;;;;;0.00;0.00;;;;;-146.67;59.23;75240.66;5083233;27;61750;-82
2023/12/25 08:08:04;;;;;;;;;0.00;0.00;;;;;-146.67;59.31;75236.66;5099803;27;61901;-82
2023/12/25 08:10:30;;;;;;;;;0.50;0.00;;;;;-146.67;59.13;75230.69;5084303;28;61735;-82
2023/12/25 08:12:55;;;;;;;;;0.00;0.00;;;;;-146.67;59.33;75222.69;5083144;28;61718;-82
2023/12/25 08:15:21;;;;;;;;;0.00;0.00;;;;;-146.67;59.11;75228.69;5083863;28;61983;-82
2023/12/25 08:17:46;;;;;;;;;0.00;0.00;;;;;-146.67;59.36;75234.66;5099812;27;61900;-82
2023/12/25 08:20:11;;;;;;;;;0.00;0.00;;;;;-146.67;59.59;75230.69;5080919;27;61706;-82
2023/12/25 08:22:37;;;;;;;;;3.25;2.00;;;;;-146.67;59.32;75238.66;5083206;27;61883;-82
2023/12/25 08:25:03;;;;;;;;;1.00;1.00;;;;;-146.67;59.39;75240.66;5082164;28;61901;-82
2023/12/25 08:27:29;;;;;;;;;0.25;0.00;;;;;-146.67;59.19;75234.66;5099600;27;61920;-82
2023/12/25 08:29:54;;;;;;;;;0.25;0.00;;;;;-146.67;59.44;75242.66;5083989;27;61738;-82
2023/12/25 08:32:20;;;;;;;;;1.00;0.00;;;;;-146.67;59.62;75264.63;5081727;28;64767;-81
2023/12/25 08:34:45;;;;;;;;;0.00;0.00;;;;;-146.67;59.46;75248.66;5083032;27;61892;-82
2023/12/25 08:37:11;;;;;;;;;0.00;0.00;;;;;-146.67;59.36;75240.66;5083251;27;62004;-82
2023/12/25 08:39:36;;;;;;;;;0.25;0.25;;;;;-146.67;59.09;75230.69;5082559;28;62183;-82
2023/12/25 08:42:03;;;;;;;;;2.00;2.00;;;;;-146.67;58.87;75228.69;5081458;28;64547;-82
2023/12/25 08:44:28;;;;;;;;;1.00;0.00;;;;;-146.67;58.76;75234.66;5083643;27;61841;-82
2023/12/25 08:46:53;;;;;;;;;0.00;0.00;;;;;-146.67;58.73;75232.69;5081955;28;62184;-82
2023/12/25 08:49:19;;;;;;;;;0.00;0.00;;;;;-146.67;58.58;75250.66;5083151;27;61809;-82
2023/12/25 08:51:44;;;;;;;;;0.50;0.00;;;;;-146.67;58.50;75256.63;5091464;27;61724;-82
2023/12/25 08:54:10;;;;;;;;;0.00;0.00;;;;;-146.67;58.74;75262.63;5085559;27;61815;-82
2023/12/25 08:56:35;;;;;;;;;1.00;1.00;;;;;-146.67;58.42;75248.66;5083688;27;61810;-82
2023/12/25 08:59:01;;;;;;;;;0.00;0.00;;;;;-146.67;58.39;75242.66;5083536;28;62549;-82
2023/12/25 09:01:29;;;;;;;;;1.00;0.00;;;;;-146.67;58.51;75244.66;5082796;27;62000;-82
2023/12/25 09:03:54;;;;;;;;;0.00;0.00;;;;;-146.67;58.18;75254.63;5082946;27;62010;-82
2023/12/25 09:06:19;;;;;;;;;0.00;0.00;;;;;-146.67;58.18;75248.66;5082911;27;61952;-82
2023/12/25 09:08:46;;;;;;;;;0.50;0.00;;;;;-146.67;58.00;75242.66;5083792;27;61922;-82
2023/12/25 09:11:11;;;;;;;;;0.00;0.00;;;;;-146.67;57.81;75234.66;5083446;27;62664;-82
2023/12/25 09:13:37;;;;;;;;;1.75;0.00;;;;;-146.67;57.73;75244.66;5082955;27;61797;-82
2023/12/25 09:16:02;;;;;;;;;0.00;0.00;;;;;-146.67;57.75;75248.66;5082941;27;62118;-82
2023/12/25 09:18:29;;;;;;;;;1.00;0.00;;;;;-146.67;57.73;75234.66;5081422;28;62131;-82
2023/12/25 09:20:56;;;;;;;;;0.00;0.00;;;;;-146.67;57.64;75228.69;5081385;27;63001;-82
2023/12/25 09:23:21;;;;;;;;;0.00;0.00;;;;;-146.67;57.26;75224.69;5082810;27;61719;-82
2023/12/25 09:25:47;;;;;;;;;0.00;0.00;;;;;-146.67;57.13;75236.66;5082852;27;62191;-82
2023/12/25 09:28:12;;;;;;;;;0.00;0.00;;;;;-146.67;56.81;75230.69;5082970;27;61712;-82
2023/12/25 09:30:39;;;;;;;;;1.00;0.00;;;;;-146.67;56.66;75234.66;5080953;28;65161;-82
2023/12/25 09:33:04;;;;;;;;;1.00;0.00;;;;;-146.67;56.89;75230.69;5082673;27;61947;-82
2023/12/25 09:35:30;;;;;;;;;0.00;0.00;;;;;-146.67;56.60;75228.69;5082227;27;61722;-82
2023/12/25 09:37:55;;;;;;;;;0.00;0.00;;;;;-146.67;56.24;75220.69;5081793;28;62105;-82
2023/12/25 09:40:21;;;;;;;;;0.00;0.00;;;;;-146.67;56.28;75218.69;5081896;27;62745;-82
2023/12/25 09:42:49;;;;;;;;;0.00;0.00;;;;;-146.67;56.27;75206.72;5082704;27;61858;-82
2023/12/25 09:45:16;;;;;;;;;0.00;0.00;;;;;-146.67;55.95;75204.72;5080728;28;61969;-81
2023/12/25 09:47:41;;;;;;;;;1.50;0.00;;;;;-146.67;56.02;75202.72;5082039;28;61809;-82
2023/12/25 09:50:07;;;;;;;;;1.50;0.00;;;;;-146.67;56.27;75200.72;5080021;28;64944;-82
2023/12/25 09:52:32;;;;;;;;;1.00;0.75;;;;;-146.67;55.97;75202.72;5082265;27;61802;-82
2023/12/25 09:54:59;;;;;;;;;0.00;0.00;;;;;-146.67;56.11;75200.72;5082890;27;62333;-82
2023/12/25 09:57:26;;;;;;;;;0.00;0.00;;;;;-146.67;56.21;75194.72;5082646;27;61756;-82
2023/12/25 09:59:52;;;;;;;;;0.75;0.00;;;;;-146.67;55.97;75200.72;5097934;27;63632;-82
2023/12/25 10:02:21;;;;;;;;;0.00;0.00;;;;;-146.67;56.20;75202.72;5081978;27;61996;-82
2023/12/25 10:04:48;;;;;;;;;1.50;0.25;;;;;-146.67;56.46;75200.72;5082380;27;61727;-82
2023/12/25 10:07:14;;;;;;;;;0.00;0.00;;;;;-146.67;56.40;75190.75;5082300;27;62563;-82
2023/12/25 10:09:40;;;;;;;;;0.00;0.00;;;;;-146.67;56.47;75176.75;5081802;28;61796;-82
2023/12/25 10:12:06;;;;;;;;;0.00;0.00;;;;;-146.67;56.39;75172.78;5082373;27;62149;-82
2023/12/25 10:14:32;;;;;;;;;1.00;0.00;;;;;-146.67;56.13;75170.78;5080611;28;61861;-82
2023/12/25 10:16:58;;;;;;;;;1.00;0.00;;;;;-146.67;56.47;75158.78;5082127;27;61829;-82
2023/12/25 10:19:24;;;;;;;;;0.00;0.00;;;;;-146.67;56.10;75158.78;5081022;27;62625;-82
2023/12/25 10:21:52;;;;;;;;;0.00;0.00;;;;;-146.67;56.14;75152.81;5081703;27;61984;-82
2023/12/25 10:24:17;;;;;;;;;0.00;0.00;;;;;-146.67;56.08;75146.81;5082417;27;61982;-82
2023/12/25 10:26:44;;;;;;;;;0.00;0.00;;;;;-146.67;56.23;75136.81;5082132;27;61802;-83
2023/12/25 10:29:10;;;;;;;;;0.25;0.25;;;;;-146.67;56.05;75130.84;5080193;28;63777;-82
2023/12/25 10:31:40;;;;;;;;;0.00;0.00;;;;;-146.67;56.32;75134.81;5081612;27;61840;-83
2023/12/25 10:34:05;;;;;;;;;0.25;0.25;;;;;-146.67;56.29;75142.81;5097739;27;61966;-83
2023/12/25 10:36:31;;;;;;;;;0.00;0.00;;;;;-146.67;56.49;75150.81;5081799;27;61808;-83
2023/12/25 10:38:57;;;;;;;;;0.00;0.00;;;;;-146.67;56.82;75154.78;5080184;28;63880;-82
2023/12/25 10:41:27;;;;;;;;;0.00;0.00;;;;;-146.67;57.05;75158.78;5080401;28;61809;-82
2023/12/25 10:43:57;;;;;;;;;0.75;0.00;;;;;-146.67;57.26;75156.78;5082123;27;61822;-83
2023/12/25 10:46:24;;;;;;;;;1.00;0.00;;;;;-146.67;57.61;75162.78;5081749;27;62034;-82
2023/12/25 10:48:52;;;;;;;;;0.00;0.00;;;;;-146.67;57.85;75168.78;5081220;27;61748;-83
2023/12/25 10:51:25;;;;;;;;;1.00;0.00;;;;;-146.67;58.20;75174.75;5081249;27;61877;-82
2023/12/25 10:53:50;;;;;;;;;1.00;0.00;;;;;-146.67;58.42;75176.75;5081891;27;61976;-83
2023/12/25 10:56:20;;;;;;;;;0.25;0.25;;;;;-146.67;58.73;75174.75;5080277;28;61851;-82
2023/12/25 10:58:48;;;;;;;;;0.00;0.00;;;;;-146.67;58.73;75172.78;5084323;27;61886;-82
2023/12/25 11:01:17;;;;;;;;;0.00;0.00;;;;;-146.67;58.59;75174.75;5084911;27;61980;-83
2023/12/25 11:03:43;;;;;;;;;0.00;0.00;;;;;-146.67;58.81;75182.75;5083802;28;62112;-82
2023/12/25 11:06:09;;;;;;;;;0.00;0.00;;;;;-146.67;58.92;75186.75;5083385;28;61999;-82
2023/12/25 11:08:34;;;;;;;;;1.00;0.00;;;;;-146.67;58.95;75204.72;5084706;27;61772;-82